Terminal Aerodrome Forecast
Issued by NWS

Current Version | Previous Version | Text Only | Print | Product List | Glossary On
Versions: 1 2 3 4 5 6 7 8 9 10 11 12 13 14
000
FTUS42 KRAH 242329
TAFRWI
TAF
KRWI 242329Z 2500/2524 VRB02KT P6SM FEW060 BKN250
     FM250800 00000KT 3SM BR SCT002
      TEMPO 2508/2511 1/2SM FG VV002
     FM251200 VRB03KT P6SM SCT035 BKN250=

USA.gov is the U.S. government's official web portal to all federal, state and local government web resources and services.